Accueil
METAR-TAF:

METAR-TAF

Aéroports :

Cassel, Allemagne

latitude: 51-24N, longitude: 009-23E, altitude: 277 m

Observation

Le bulletin a été fait il y a 31 minutes, à 18:50 UTC
Vent 6 kt de nord
Température 20°C
Humidité 60%
Pression 1019 hPa
Visibilité 10 km ou plus
pas de nuages en-dessous de 1500 mètres et pas de cumulonimbus.

METAR: EDVK 151850Z 36006KT CAVOK 20/12 Q1019

Heure: 21:21 (19:21 UTC)

Prévision

Le bulletin a été fait il y a 2 heures et 21 minutes, à 17:00 UTC
Prévision valable du 15 à 18 UTC au 16 à 03 UTC
Vent 10 kt de nord
Visibilité 10 km ou plus
Quelques nuages à une hauteur de 4000 ft
Evoluant progressivement
du 15 à 18 UTC au 15 à 22 UTC
Vent 3 kt de direction variable

TAF: EDVK 151700Z 1518/1603 35010KT 9999 FEW040 BECMG 1518/1522 VRB03KT

Observations et prévisions météorologiques de plus de 4000 aéroports (messages METAR et TAF).

Les stations disponibles sont représentées par des disques jaunes et rouges sur la carte.

Passer la souris dessus pour voir le nom de la station.

Cliquer dessus pour voir les observations et prévisions météorologiques.

Pour changer de carte: cliquez sur les boutons verts avec une croix noire pour zoomer, sur le bouton vert avec un tiret pour effectuer un zoom arrière, ou sur les flèches vertes pour les cartes adjacentes.


METAR-TAF: